createdAt,value
2023-05-05T00:01:33.299Z,99374.16
2023-05-05T00:04:00.992Z,99379.47
2023-05-05T00:06:31.444Z,99377.16
2023-05-05T00:08:58.560Z,99378.97
2023-05-05T00:11:26.163Z,99379.41
2023-05-05T00:13:53.297Z,99378.03
2023-05-05T00:16:20.492Z,99369.81
2023-05-05T00:18:48.123Z,99369.00
2023-05-05T00:21:15.828Z,99373.25
2023-05-05T00:23:42.772Z,99378.31
2023-05-05T00:26:09.747Z,99376.38
2023-05-05T00:28:38.464Z,99380.72
2023-05-05T00:31:05.768Z,99379.88
2023-05-05T00:33:32.780Z,99381.78
2023-05-05T00:35:59.848Z,99376.88
2023-05-05T00:38:26.858Z,99376.63
2023-05-05T00:40:53.854Z,99384.97
2023-05-05T00:43:20.822Z,99380.31
2023-05-05T00:45:53.228Z,99380.78
2023-05-05T00:48:24.547Z,99380.94
2023-05-05T00:50:52.077Z,99380.28
2023-05-05T00:53:19.111Z,99382.31
2023-05-05T00:55:46.738Z,99381.09
2023-05-05T00:58:13.799Z,99389.66
2023-05-05T01:00:40.817Z,99379.56
2023-05-05T01:03:08.373Z,99391.91
2023-05-05T01:06:08.412Z,99397.47
2023-05-05T01:08:56.436Z,99399.56
2023-05-05T01:11:38.768Z,99390.09
2023-05-05T01:14:19.303Z,99385.44
2023-05-05T01:17:12.275Z,99377.81
2023-05-05T01:19:56.913Z,99377.69
2023-05-05T01:22:33.872Z,99373.03
2023-05-05T01:25:00.815Z,99384.63
2023-05-05T01:28:09.662Z,99375.16
2023-05-05T01:30:45.816Z,99379.16
2023-05-05T01:33:16.690Z,99374.00
2023-05-05T01:35:52.586Z,99367.78
2023-05-05T01:38:25.600Z,99367.19
2023-05-05T01:41:08.000Z,99364.50
2023-05-05T01:43:37.400Z,99361.47
2023-05-05T01:46:06.588Z,99372.84
2023-05-05T01:48:33.968Z,99362.78
2023-05-05T01:51:03.194Z,99377.91
2023-05-05T01:53:31.462Z,99382.72
2023-05-05T01:55:59.313Z,99377.78
2023-05-05T01:58:29.214Z,99387.38
2023-05-05T02:00:58.071Z,99383.53
2023-05-05T02:03:27.030Z,99385.41
2023-05-05T02:05:55.453Z,99388.81
2023-05-05T02:08:23.619Z,99374.44
2023-05-05T02:10:51.970Z,99377.84
2023-05-05T02:13:20.908Z,99378.66
2023-05-05T02:15:51.119Z,99375.63
2023-05-05T02:18:19.472Z,99379.63
2023-05-05T02:20:47.254Z,99386.25
2023-05-05T02:23:14.325Z,99378.06
2023-05-05T02:25:46.034Z,99375.75
2023-05-05T02:28:23.395Z,99388.16
2023-05-05T02:30:59.628Z,99379.28
2023-05-05T02:33:32.625Z,99385.72
2023-05-05T02:36:14.774Z,99381.97
2023-05-05T02:39:01.323Z,99391.69
2023-05-05T02:41:36.310Z,99384.66
2023-05-05T02:44:09.901Z,99380.56
2023-05-05T02:46:39.145Z,99379.97
2023-05-05T02:49:06.457Z,99384.44
2023-05-05T02:51:33.771Z,99391.78
2023-05-05T02:54:05.336Z,99379.28
2023-05-05T02:56:49.024Z,99390.41
2023-05-05T02:59:26.529Z,99388.19
2023-05-05T03:02:22.116Z,99382.44
2023-05-05T03:04:55.079Z,99386.66
2023-05-05T03:07:31.245Z,99401.16
2023-05-05T03:10:14.153Z,99385.09
2023-05-05T03:12:57.257Z,99400.66
2023-05-05T03:15:36.217Z,99385.81
2023-05-05T03:18:04.886Z,99387.91
2023-05-05T03:20:32.553Z,99391.88
2023-05-05T03:23:05.310Z,99396.44
2023-05-05T03:25:46.765Z,99393.53
2023-05-05T03:28:27.255Z,99402.88
2023-05-05T03:30:56.034Z,99397.94
2023-05-05T03:33:23.113Z,99401.44
2023-05-05T03:35:50.183Z,99403.94
2023-05-05T03:38:18.345Z,99412.00
2023-05-05T03:40:46.024Z,99408.03
2023-05-05T03:43:17.410Z,99400.78
2023-05-05T03:45:44.535Z,99407.81
2023-05-05T03:48:12.025Z,99405.22
2023-05-05T03:50:40.876Z,99406.06
2023-05-05T03:53:09.122Z,99405.22
2023-05-05T03:55:37.039Z,99394.22
2023-05-05T03:58:04.095Z,99411.41
2023-05-05T04:00:32.296Z,99416.66
2023-05-05T04:03:00.178Z,99411.16
2023-05-05T04:05:27.188Z,99413.09
2023-05-05T04:07:54.393Z,99416.94
2023-05-05T04:10:21.653Z,99425.13
2023-05-05T04:12:49.149Z,99449.19
2023-05-05T04:15:16.846Z,99429.00
2023-05-05T04:17:44.297Z,99427.94
2023-05-05T04:20:11.547Z,99436.69
2023-05-05T04:22:39.604Z,99437.78
2023-05-05T04:25:07.396Z,99432.72
2023-05-05T04:27:34.512Z,99438.25
2023-05-05T04:30:01.981Z,99442.50
2023-05-05T04:32:30.634Z,99446.53
2023-05-05T04:34:57.609Z,99445.50
2023-05-05T04:37:25.805Z,99453.41
2023-05-05T04:39:53.160Z,99451.00
2023-05-05T04:42:20.304Z,99448.81
2023-05-05T04:44:47.366Z,99446.25
2023-05-05T04:47:14.856Z,99456.94
2023-05-05T04:49:42.623Z,99458.94
2023-05-05T04:52:09.624Z,99453.31
2023-05-05T04:54:37.545Z,99450.63
2023-05-05T04:57:04.692Z,99448.66
2023-05-05T04:59:31.936Z,99462.63
2023-05-05T05:01:59.056Z,99460.16
2023-05-05T05:04:27.374Z,99451.66
2023-05-05T05:06:56.160Z,99456.44
2023-05-05T05:09:24.502Z,99450.59
2023-05-05T05:11:51.885Z,99460.19
2023-05-05T05:14:19.118Z,99457.38
2023-05-05T05:16:46.979Z,99468.78
2023-05-05T05:19:14.461Z,99464.28
2023-05-05T05:21:41.485Z,99464.78
2023-05-05T05:24:08.586Z,99469.09
2023-05-05T05:26:35.746Z,99466.50
2023-05-05T05:29:04.862Z,99469.84
2023-05-05T05:31:34.571Z,99470.09
2023-05-05T05:34:02.593Z,99472.16
2023-05-05T05:36:29.718Z,99471.06
2023-05-05T05:38:56.785Z,99468.81
2023-05-05T05:41:23.796Z,99472.44
2023-05-05T05:43:50.849Z,99469.16
2023-05-05T05:46:18.471Z,99471.63
2023-05-05T05:48:46.829Z,99470.88
2023-05-05T05:51:14.017Z,99465.56
2023-05-05T05:53:41.863Z,99473.06
2023-05-05T05:56:09.986Z,99473.72
2023-05-05T05:58:37.687Z,99470.53
2023-05-05T06:01:05.278Z,99471.69
2023-05-05T06:03:32.506Z,99460.88
2023-05-05T06:05:59.648Z,99465.47
2023-05-05T06:08:27.040Z,99458.91
2023-05-05T06:10:55.607Z,99468.91
2023-05-05T06:13:22.673Z,99442.63
2023-05-05T06:15:51.980Z,99458.91
2023-05-05T06:18:19.334Z,99470.63
2023-05-05T06:20:49.851Z,99478.31
2023-05-05T06:23:18.338Z,99470.34
2023-05-05T06:25:51.001Z,99469.28
2023-05-05T06:28:18.856Z,99473.50
2023-05-05T06:30:45.862Z,99482.09
2023-05-05T06:33:13.043Z,99473.00
2023-05-05T06:35:39.989Z,99484.53
2023-05-05T06:38:07.326Z,99480.44
2023-05-05T06:40:34.654Z,99475.31
2023-05-05T06:43:01.649Z,99501.25
2023-05-05T06:45:34.934Z,99496.34
2023-05-05T06:48:01.924Z,99494.53
2023-05-05T06:50:29.182Z,99499.56
2023-05-05T06:52:56.196Z,99497.88
2023-05-05T06:55:23.777Z,99496.75
2023-05-05T06:57:50.769Z,99499.81
2023-05-05T07:00:18.756Z,99495.66
2023-05-05T07:02:47.673Z,99507.06
2023-05-05T07:05:15.048Z,99497.69
2023-05-05T07:07:55.460Z,99500.16
2023-05-05T07:10:23.916Z,99507.44
2023-05-05T07:12:52.083Z,99508.69
2023-05-05T07:15:27.392Z,99503.13
2023-05-05T07:17:57.168Z,99508.75
2023-05-05T07:20:24.655Z,99512.16
2023-05-05T07:22:51.733Z,99514.09
2023-05-05T07:25:18.827Z,99522.78
2023-05-05T07:27:46.008Z,99519.34
2023-05-05T07:30:16.557Z,99529.97
2023-05-05T07:32:46.096Z,99527.19
2023-05-05T07:35:13.737Z,99536.72
2023-05-05T07:37:40.663Z,99540.22
2023-05-05T07:40:08.426Z,99529.38
2023-05-05T07:42:36.096Z,99536.63
2023-05-05T07:45:03.723Z,99546.09
2023-05-05T07:47:30.926Z,99553.09
2023-05-05T07:49:58.226Z,99560.78
2023-05-05T07:52:43.301Z,99535.94
2023-05-05T07:55:12.152Z,99551.75
2023-05-05T07:57:39.514Z,99552.59
2023-05-05T08:00:07.303Z,99568.56
2023-05-05T08:02:40.321Z,99560.34
2023-05-05T08:05:08.225Z,99572.28
2023-05-05T08:07:36.791Z,99577.00
2023-05-05T08:10:03.874Z,99575.59
2023-05-05T08:12:30.955Z,99567.13
2023-05-05T08:14:58.165Z,99584.28
2023-05-05T08:17:27.153Z,99590.50
2023-05-05T08:19:54.350Z,99578.41
2023-05-05T08:22:22.263Z,99581.91
2023-05-05T08:24:49.241Z,99608.09
2023-05-05T08:27:16.178Z,99583.47
2023-05-05T08:29:43.227Z,99601.06
2023-05-05T08:32:10.328Z,99584.88
2023-05-05T08:34:37.277Z,99588.34
2023-05-05T08:37:04.215Z,99611.53
2023-05-05T08:39:31.302Z,99610.44
2023-05-05T08:41:58.347Z,99614.13
2023-05-05T08:44:27.205Z,99603.84
2023-05-05T08:46:55.267Z,99615.88
2023-05-05T08:49:23.128Z,99618.56
2023-05-05T08:51:52.436Z,99623.50
2023-05-05T08:54:20.670Z,99622.59
2023-05-05T08:56:53.269Z,99615.84
2023-05-05T08:59:25.272Z,99624.75
2023-05-05T09:01:53.573Z,99606.31
2023-05-05T09:04:20.884Z,99615.34
2023-05-05T09:06:48.092Z,99614.91
2023-05-05T09:09:15.117Z,99612.44
2023-05-05T09:11:43.137Z,99622.16
2023-05-05T09:16:54.586Z,99626.88
2023-05-05T09:19:21.799Z,99629.53
2023-05-05T09:21:49.614Z,99632.44
2023-05-05T09:24:16.742Z,99631.91
2023-05-05T09:26:45.749Z,99636.59
2023-05-05T09:29:19.703Z,99638.13
2023-05-05T09:32:10.941Z,99622.72
2023-05-05T09:34:38.194Z,99622.72
2023-05-05T09:37:06.358Z,99622.41
2023-05-05T09:39:33.511Z,99627.00
2023-05-05T09:42:01.472Z,99631.78
2023-05-05T09:44:36.175Z,99633.84
2023-05-05T09:47:07.201Z,99635.00
2023-05-05T09:49:39.429Z,99628.16
2023-05-05T09:52:17.846Z,99624.97
2023-05-05T09:54:44.988Z,99627.34
2023-05-05T09:57:33.435Z,99617.94
2023-05-05T10:00:04.553Z,99630.84
2023-05-05T10:02:38.421Z,99615.28
2023-05-05T10:05:10.063Z,99631.88
2023-05-05T10:07:39.014Z,99652.28
2023-05-05T10:10:08.583Z,99644.94
2023-05-05T10:12:37.247Z,99639.28
2023-05-05T10:15:06.823Z,99644.44
2023-05-05T10:18:02.301Z,99647.84
2023-05-05T10:20:34.350Z,99630.72
2023-05-05T10:23:04.308Z,99638.34
2023-05-05T10:25:39.362Z,99633.19
2023-05-05T10:28:08.414Z,99624.19
2023-05-05T10:30:43.412Z,99632.13
2023-05-05T10:33:31.009Z,99621.78
2023-05-05T10:36:01.793Z,99636.53
2023-05-05T10:38:32.861Z,99630.94
2023-05-05T10:41:01.282Z,99633.88
2023-05-05T10:43:30.824Z,99620.22
2023-05-05T10:45:59.022Z,99630.19
2023-05-05T10:48:38.143Z,99639.56
2023-05-05T10:51:39.281Z,99629.25
2023-05-05T10:54:17.100Z,99637.22
2023-05-05T10:56:44.212Z,99647.72
2023-05-05T10:59:40.139Z,99646.44
2023-05-05T11:02:31.638Z,99662.19
2023-05-05T11:05:22.177Z,99642.56
2023-05-05T11:07:51.299Z,99647.13
2023-05-05T11:10:23.879Z,99647.81
2023-05-05T11:13:05.978Z,99635.25
2023-05-05T11:15:37.555Z,99635.38
2023-05-05T11:18:07.825Z,99641.09
2023-05-05T11:20:35.530Z,99651.53
2023-05-05T11:23:02.510Z,99645.31
2023-05-05T11:25:35.918Z,99639.22
2023-05-05T11:28:10.022Z,99635.25
2023-05-05T11:30:59.010Z,99633.91
2023-05-05T11:33:31.989Z,99640.81
2023-05-05T11:36:12.811Z,99628.63
2023-05-05T11:38:39.718Z,99632.00
2023-05-05T11:41:34.201Z,99624.88
2023-05-05T11:44:19.736Z,99636.34
2023-05-05T11:46:52.672Z,99621.78
2023-05-05T11:49:31.427Z,99627.28
2023-05-05T11:52:05.589Z,99628.16
2023-05-05T11:54:34.606Z,99622.84
2023-05-05T11:57:05.218Z,99631.28
2023-05-05T11:59:32.888Z,99620.88
2023-05-05T12:02:00.871Z,99621.38
2023-05-05T12:04:28.126Z,99623.72
2023-05-05T12:06:55.605Z,99625.16
2023-05-05T12:09:23.984Z,99618.44
2023-05-05T12:11:54.212Z,99611.66
2023-05-05T12:14:22.397Z,99610.19
2023-05-05T12:16:59.333Z,99608.91
2023-05-05T12:19:30.330Z,99602.03
2023-05-05T12:21:57.444Z,99616.50
2023-05-05T12:24:24.567Z,99599.88
2023-05-05T12:26:52.047Z,99620.81
2023-05-05T12:29:26.424Z,99605.06
2023-05-05T12:31:53.852Z,99616.50
2023-05-05T12:34:21.820Z,99606.13
2023-05-05T12:36:49.127Z,99601.63
2023-05-05T12:39:16.350Z,99608.47
2023-05-05T12:41:43.548Z,99594.28
2023-05-05T12:44:10.843Z,99593.53
2023-05-05T12:46:48.727Z,99596.06
2023-05-05T12:49:17.713Z,99600.81
2023-05-05T12:51:57.091Z,99586.53
2023-05-05T12:54:25.256Z,99585.19
2023-05-05T12:56:52.406Z,99590.34
2023-05-05T12:59:22.600Z,99596.19
2023-05-05T13:01:51.748Z,99591.91
2023-05-05T13:04:21.171Z,99615.03
2023-05-05T13:06:49.628Z,99601.47
2023-05-05T13:09:35.794Z,99603.81
2023-05-05T13:12:03.900Z,99608.75
2023-05-05T13:14:36.857Z,99608.88
2023-05-05T13:17:04.060Z,99591.69
2023-05-05T13:19:31.265Z,99593.22
2023-05-05T13:21:59.090Z,99576.63
2023-05-05T13:24:42.135Z,99577.97
2023-05-05T13:27:13.967Z,99583.22
2023-05-05T13:29:41.863Z,99585.09
2023-05-05T13:32:08.856Z,99581.56
2023-05-05T13:34:36.008Z,99571.72
2023-05-05T13:37:03.022Z,99580.34
2023-05-05T13:39:29.978Z,99579.94
2023-05-05T13:41:56.994Z,99579.50
2023-05-05T13:44:24.349Z,99564.53
2023-05-05T13:46:51.618Z,99572.88
2023-05-05T13:49:18.672Z,99575.25
2023-05-05T13:51:47.109Z,99569.34
2023-05-05T13:54:14.697Z,99578.19
2023-05-05T13:56:41.955Z,99575.09
2023-05-05T13:59:09.359Z,99570.06
2023-05-05T14:01:36.540Z,99568.50
2023-05-05T14:04:05.470Z,99580.00
2023-05-05T14:06:33.930Z,99554.94
2023-05-05T14:09:01.119Z,99552.03
2023-05-05T14:11:28.292Z,99564.56
2023-05-05T14:13:57.629Z,99584.16
2023-05-05T14:16:24.962Z,99572.13
2023-05-05T14:18:52.567Z,99560.03
2023-05-05T14:21:19.560Z,99568.72
2023-05-05T14:23:46.651Z,99569.13
2023-05-05T14:26:13.891Z,99564.94
2023-05-05T14:28:41.065Z,99577.31
2023-05-05T14:31:08.028Z,99570.25
2023-05-05T14:33:35.506Z,99575.78
2023-05-05T14:36:02.584Z,99583.03
2023-05-05T14:38:30.045Z,99573.53
2023-05-05T14:40:57.269Z,99578.22
2023-05-05T14:43:24.431Z,99583.44
2023-05-05T14:45:52.532Z,99570.75
2023-05-05T14:48:22.584Z,99585.25
2023-05-05T14:50:50.164Z,99575.75
2023-05-05T14:53:19.126Z,99574.22
2023-05-05T14:55:46.231Z,99568.91
2023-05-05T14:58:13.339Z,99572.59
2023-05-05T15:00:40.601Z,99569.63
2023-05-05T15:03:07.772Z,99568.16
2023-05-05T15:05:35.443Z,99571.22
2023-05-05T15:08:02.515Z,99568.97
2023-05-05T15:10:29.617Z,99568.53
2023-05-05T15:12:56.709Z,99561.19
2023-05-05T15:15:24.820Z,99567.75
2023-05-05T15:17:52.638Z,99563.59
2023-05-05T15:20:19.783Z,99567.00
2023-05-05T15:22:49.006Z,99563.84
2023-05-05T15:25:18.924Z,99563.16
2023-05-05T15:27:47.011Z,99561.78
2023-05-05T15:30:14.467Z,99563.19
2023-05-05T15:32:41.988Z,99562.91
2023-05-05T15:35:09.365Z,99546.78
2023-05-05T15:37:37.894Z,99565.00
2023-05-05T15:40:06.130Z,99565.47
2023-05-05T15:42:34.054Z,99558.50
2023-05-05T15:45:01.667Z,99562.25
2023-05-05T15:47:31.240Z,99567.75
2023-05-05T15:49:58.176Z,99580.53
2023-05-05T15:52:25.298Z,99570.66
2023-05-05T15:54:52.391Z,99572.94
2023-05-05T15:57:19.378Z,99573.34
2023-05-05T15:59:46.443Z,99579.91
2023-05-05T16:02:13.463Z,99576.03
2023-05-05T16:04:40.530Z,99579.38
2023-05-05T16:07:07.611Z,99584.59
2023-05-05T16:09:34.995Z,99589.38
2023-05-05T16:12:02.900Z,99575.34
2023-05-05T16:14:32.190Z,99587.09
2023-05-05T16:16:59.488Z,99573.31
2023-05-05T16:19:30.238Z,99577.53
2023-05-05T16:21:57.804Z,99578.78
2023-05-05T16:24:24.830Z,99583.00
2023-05-05T16:26:52.029Z,99579.06
2023-05-05T16:29:19.482Z,99577.50
2023-05-05T16:31:46.985Z,99566.81
2023-05-05T16:34:14.839Z,99574.44
2023-05-05T16:36:43.666Z,99564.84
2023-05-05T16:39:12.040Z,99568.44
2023-05-05T16:41:39.315Z,99560.28
2023-05-05T16:44:07.118Z,99563.28
2023-05-05T16:46:37.599Z,99573.03
2023-05-05T16:49:04.865Z,99576.53
2023-05-05T16:51:31.856Z,99567.75
2023-05-05T16:53:59.130Z,99575.47
2023-05-05T16:56:26.255Z,99565.41
2023-05-05T16:58:53.727Z,99576.38
2023-05-05T17:01:20.911Z,99578.19
2023-05-05T17:03:47.953Z,99581.88
2023-05-05T17:06:15.032Z,99580.47
2023-05-05T17:08:42.078Z,99583.06
2023-05-05T17:11:11.669Z,99577.00
2023-05-05T17:13:39.031Z,99573.47
2023-05-05T17:16:06.682Z,99576.25
2023-05-05T17:18:33.692Z,99578.75
2023-05-05T17:21:00.781Z,99571.88
2023-05-05T17:23:28.102Z,99581.72
2023-05-05T17:25:55.252Z,99581.03
2023-05-05T17:28:22.568Z,99579.84
2023-05-05T17:30:49.595Z,99583.81
2023-05-05T17:33:20.901Z,99578.63
2023-05-05T17:35:48.540Z,99579.66
2023-05-05T17:38:15.761Z,99586.03
2023-05-05T17:40:43.165Z,99578.28
2023-05-05T17:43:10.081Z,99584.22
2023-05-05T17:45:37.065Z,99575.03
2023-05-05T17:48:04.360Z,99575.56
2023-05-05T17:50:31.494Z,99578.34
2023-05-05T17:52:58.457Z,99593.25
2023-05-05T17:55:25.952Z,99582.59
2023-05-05T17:57:53.025Z,99591.13
2023-05-05T18:00:20.797Z,99590.97
2023-05-05T18:02:52.838Z,99586.94
2023-05-05T18:05:20.795Z,99589.91
2023-05-05T18:07:47.873Z,99586.03
2023-05-05T18:10:14.884Z,99585.50
2023-05-05T18:12:42.136Z,99585.13
2023-05-05T18:15:09.742Z,99576.00
2023-05-05T18:17:37.541Z,99575.78
2023-05-05T18:20:07.066Z,99581.38
2023-05-05T18:22:34.562Z,99590.72
2023-05-05T18:25:01.715Z,99587.19
2023-05-05T18:27:32.665Z,99589.06
2023-05-05T18:30:00.749Z,99588.69
2023-05-05T18:32:28.066Z,99592.41
2023-05-05T18:34:55.222Z,99588.16
2023-05-05T18:37:22.363Z,99587.72
2023-05-05T18:39:49.722Z,99585.63
2023-05-05T18:42:16.761Z,99584.56
2023-05-05T18:44:43.695Z,99596.44
2023-05-05T18:47:10.808Z,99596.81
2023-05-05T18:49:38.151Z,99591.28
2023-05-05T18:52:05.237Z,99598.94
2023-05-05T18:54:32.187Z,99595.06
2023-05-05T18:56:59.448Z,99594.44
2023-05-05T18:59:26.694Z,99594.28
2023-05-05T19:01:53.649Z,99584.22
2023-05-05T19:04:30.638Z,99592.28
2023-05-05T19:06:58.378Z,99587.63
2023-05-05T19:09:25.657Z,99593.19
2023-05-05T19:11:52.698Z,99591.53
2023-05-05T19:14:19.698Z,99591.97
2023-05-05T19:16:47.068Z,99591.38
2023-05-05T19:19:14.244Z,99586.06
2023-05-05T19:21:41.351Z,99586.28
2023-05-05T19:24:09.030Z,99597.66
2023-05-05T19:26:36.139Z,99579.75
2023-05-05T19:29:04.479Z,99582.84
2023-05-05T19:31:31.775Z,99592.97
2023-05-05T19:34:01.703Z,99589.28
2023-05-05T19:36:30.295Z,99593.69
2023-05-05T19:38:57.791Z,99587.69
2023-05-05T19:41:24.844Z,99591.84
2023-05-05T19:43:52.053Z,99598.25
2023-05-05T19:46:19.922Z,99594.53
2023-05-05T19:48:47.290Z,99600.13
2023-05-05T19:51:14.221Z,99599.31
2023-05-05T19:53:43.003Z,99600.56
2023-05-05T19:56:10.444Z,99595.63
2023-05-05T19:58:57.755Z,99600.16
2023-05-05T20:01:25.506Z,99600.56
2023-05-05T20:03:54.604Z,99596.66
2023-05-05T20:06:22.660Z,99602.69
2023-05-05T20:08:50.007Z,99591.56
2023-05-05T20:11:17.399Z,99597.75
2023-05-05T20:13:44.578Z,99594.88
2023-05-05T20:16:12.319Z,99593.69
2023-05-05T20:18:40.388Z,99584.19
2023-05-05T20:21:07.524Z,99606.47
2023-05-05T20:23:34.557Z,99602.59
2023-05-05T20:26:01.750Z,99610.00
2023-05-05T20:28:28.953Z,99599.94
2023-05-05T20:30:56.219Z,99597.88
2023-05-05T20:33:23.435Z,99599.34
2023-05-05T20:35:50.634Z,99600.59
2023-05-05T20:38:17.671Z,99599.38
2023-05-05T20:40:45.160Z,99594.84
2023-05-05T20:43:12.285Z,99591.75
2023-05-05T20:45:39.209Z,99595.06
2023-05-05T20:48:09.867Z,99583.56
2023-05-05T20:50:41.841Z,99596.53
2023-05-05T20:53:10.485Z,99600.06
2023-05-05T20:55:37.600Z,99605.22
2023-05-05T20:58:05.584Z,99604.56
2023-05-05T21:00:32.664Z,99607.06
2023-05-05T21:02:59.957Z,99610.97
2023-05-05T21:05:27.019Z,99604.38
2023-05-05T21:07:54.754Z,99606.03
2023-05-05T21:10:22.215Z,99606.88
2023-05-05T21:12:49.374Z,99598.84
2023-05-05T21:15:16.957Z,99598.63
2023-05-05T21:17:44.110Z,99593.69
2023-05-05T21:20:12.337Z,99598.84
2023-05-05T21:22:39.673Z,99605.22
2023-05-05T21:25:13.044Z,99593.50
2023-05-05T21:27:40.464Z,99599.28
2023-05-05T21:30:10.666Z,99594.34
2023-05-05T21:32:38.876Z,99604.84
2023-05-05T21:35:07.678Z,99587.31
2023-05-05T21:37:36.688Z,99592.28
2023-05-05T21:40:04.039Z,99595.78
2023-05-05T21:42:31.727Z,99591.66
2023-05-05T21:44:58.732Z,99597.41
2023-05-05T21:47:27.949Z,99592.44
2023-05-05T21:49:54.986Z,99587.50
2023-05-05T21:52:22.086Z,99596.97
2023-05-05T21:54:49.280Z,99587.50
2023-05-05T21:57:16.414Z,99577.84
2023-05-05T21:59:43.464Z,99584.81
2023-05-05T22:02:10.552Z,99583.81
2023-05-05T22:04:37.765Z,99585.22
2023-05-05T22:07:04.775Z,99597.34
2023-05-05T22:09:31.841Z,99590.78
2023-05-05T22:11:58.901Z,99585.81
2023-05-05T22:14:25.928Z,99589.53
2023-05-05T22:16:53.081Z,99599.41
2023-05-05T22:19:20.329Z,99593.22
2023-05-05T22:21:47.209Z,99591.78
2023-05-05T22:24:14.375Z,99594.47
2023-05-05T22:26:43.418Z,99590.75
2023-05-05T22:29:11.212Z,99599.19
2023-05-05T22:31:38.719Z,99595.84
2023-05-05T22:34:05.945Z,99606.97
2023-05-05T22:36:32.976Z,99601.41
2023-05-05T22:38:59.995Z,99604.69
2023-05-05T22:41:27.002Z,99603.63
2023-05-05T22:43:54.157Z,99597.03
2023-05-05T22:46:21.316Z,99602.78
2023-05-05T22:48:49.202Z,99596.63
2023-05-05T22:51:16.614Z,99599.88
2023-05-05T22:53:43.526Z,99599.88
2023-05-05T22:56:10.663Z,99606.63
2023-05-05T22:58:37.859Z,99607.88
2023-05-05T23:01:04.955Z,99607.66
2023-05-05T23:03:32.226Z,99607.41
2023-05-05T23:05:59.230Z,99610.50
2023-05-05T23:08:26.231Z,99609.03
2023-05-05T23:10:54.012Z,99609.44
2023-05-05T23:13:21.064Z,99614.31
2023-05-05T23:15:48.005Z,99615.13
2023-05-05T23:18:14.986Z,99613.47
2023-05-05T23:20:42.057Z,99616.16
2023-05-05T23:23:09.277Z,99618.81
2023-05-05T23:25:36.169Z,99616.97
2023-05-05T23:28:03.295Z,99622.50
2023-05-05T23:30:30.649Z,99624.34
2023-05-05T23:32:58.107Z,99622.09
2023-05-05T23:35:26.364Z,99625.34
2023-05-05T23:37:53.321Z,99622.44
2023-05-05T23:40:20.451Z,99624.88
2023-05-05T23:42:47.405Z,99620.28
2023-05-05T23:45:14.767Z,99614.53
2023-05-05T23:47:42.300Z,99617.97
2023-05-05T23:50:09.707Z,99622.88
2023-05-05T23:52:36.598Z,99621.81
2023-05-05T23:55:03.797Z,99617.91
2023-05-05T23:57:30.886Z,99622.75
2023-05-05T23:59:58.351Z,99627.47
